sensor_id;sensor_type;location;lat;lon;timestamp;P1;durP1;ratioP1;P2;durP2;ratioP2
70725;SDS011;58304;53.104;6.022;2022-09-21T00:02:58;2.15;;;1.20;;
70725;SDS011;58304;53.104;6.022;2022-09-21T00:07:50;3.08;;;1.30;;
70725;SDS011;58304;53.104;6.022;2022-09-21T00:12:44;3.47;;;1.30;;
70725;SDS011;58304;53.104;6.022;2022-09-21T00:15:12;1.77;;;0.80;;
70725;SDS011;58304;53.104;6.022;2022-09-21T00:17:40;1.55;;;0.80;;
70725;SDS011;58304;53.104;6.022;2022-09-21T00:22:31;2.03;;;0.60;;
70725;SDS011;58304;53.104;6.022;2022-09-21T00:24:58;1.00;;;0.60;;
70725;SDS011;58304;53.104;6.022;2022-09-21T00:27:27;1.17;;;0.65;;
70725;SDS011;58304;53.104;6.022;2022-09-21T00:30:03;1.60;;;0.50;;
70725;SDS011;58304;53.104;6.022;2022-09-21T00:32:31;1.08;;;0.50;;
70725;SDS011;58304;53.104;6.022;2022-09-21T00:34:57;0.98;;;0.47;;
70725;SDS011;58304;53.104;6.022;2022-09-21T00:37:24;1.17;;;0.70;;
70725;SDS011;58304;53.104;6.022;2022-09-21T00:39:51;1.67;;;0.80;;
70725;SDS011;58304;53.104;6.022;2022-09-21T00:44:43;2.85;;;1.13;;
70725;SDS011;58304;53.104;6.022;2022-09-21T00:49:36;2.60;;;1.10;;
70725;SDS011;58304;53.104;6.022;2022-09-21T00:52:02;3.50;;;1.00;;
70725;SDS011;58304;53.104;6.022;2022-09-21T00:54:32;3.03;;;1.35;;
70725;SDS011;58304;53.104;6.022;2022-09-21T00:57:03;3.92;;;1.25;;
70725;SDS011;58304;53.104;6.022;2022-09-21T00:59:30;4.57;;;1.38;;
70725;SDS011;58304;53.104;6.022;2022-09-21T01:01:58;3.55;;;1.23;;
70725;SDS011;58304;53.104;6.022;2022-09-21T01:04:24;2.60;;;0.90;;
70725;SDS011;58304;53.104;6.022;2022-09-21T01:06:52;2.15;;;0.93;;
70725;SDS011;58304;53.104;6.022;2022-09-21T01:09:19;1.52;;;0.90;;
70725;SDS011;58304;53.104;6.022;2022-09-21T01:18:02;1.83;;;0.90;;
70725;SDS011;58304;53.104;6.022;2022-09-21T01:29:19;2.17;;;1.00;;
70725;SDS011;58304;53.104;6.022;2022-09-21T01:31:53;2.70;;;1.20;;
70725;SDS011;58304;53.104;6.022;2022-09-21T01:37:04;1.10;;;0.70;;
70725;SDS011;58304;53.104;6.022;2022-09-21T01:39:35;1.73;;;0.90;;
70725;SDS011;58304;53.104;6.022;2022-09-21T01:42:04;1.70;;;0.73;;
70725;SDS011;58304;53.104;6.022;2022-09-21T01:44:31;1.35;;;0.88;;
70725;SDS011;58304;53.104;6.022;2022-09-21T01:47:00;6.00;;;1.30;;
70725;SDS011;58304;53.104;6.022;2022-09-21T01:49:38;5.32;;;1.52;;
70725;SDS011;58304;53.104;6.022;2022-09-21T01:55:17;3.05;;;1.48;;
70725;SDS011;58304;53.104;6.022;2022-09-21T02:01:28;2.08;;;1.00;;
70725;SDS011;58304;53.104;6.022;2022-09-21T02:03:59;3.92;;;1.40;;
70725;SDS011;58304;53.104;6.022;2022-09-21T02:06:32;6.57;;;1.35;;
70725;SDS011;58304;53.104;6.022;2022-09-21T02:11:23;4.18;;;1.20;;
70725;SDS011;58304;53.104;6.022;2022-09-21T02:13:49;1.63;;;1.00;;
70725;SDS011;58304;53.104;6.022;2022-09-21T02:16:27;1.20;;;0.70;;
70725;SDS011;58304;53.104;6.022;2022-09-21T02:24:26;2.08;;;0.90;;
70725;SDS011;58304;53.104;6.022;2022-09-21T02:27:03;3.17;;;1.35;;
70725;SDS011;58304;53.104;6.022;2022-09-21T02:35:40;1.35;;;0.90;;
70725;SDS011;58304;53.104;6.022;2022-09-21T02:37:48;3.15;;;1.00;;
70725;SDS011;58304;53.104;6.022;2022-09-21T02:40:22;1.25;;;0.73;;
70725;SDS011;58304;53.104;6.022;2022-09-21T02:42:55;2.75;;;1.48;;
70725;SDS011;58304;53.104;6.022;2022-09-21T02:45:31;1.60;;;0.70;;
70725;SDS011;58304;53.104;6.022;2022-09-21T02:48:10;1.50;;;0.88;;
70725;SDS011;58304;53.104;6.022;2022-09-21T02:50:51;1.52;;;0.73;;
70725;SDS011;58304;53.104;6.022;2022-09-21T02:53:23;1.00;;;0.65;;
70725;SDS011;58304;53.104;6.022;2022-09-21T02:55:53;12.20;;;1.33;;
70725;SDS011;58304;53.104;6.022;2022-09-21T02:58:20;2.60;;;0.85;;
70725;SDS011;58304;53.104;6.022;2022-09-21T03:00:47;6.63;;;0.98;;
70725;SDS011;58304;53.104;6.022;2022-09-21T03:05:44;1.42;;;0.90;;
70725;SDS011;58304;53.104;6.022;2022-09-21T03:08:12;1.80;;;0.98;;
70725;SDS011;58304;53.104;6.022;2022-09-21T03:13:05;1.95;;;0.80;;
70725;SDS011;58304;53.104;6.022;2022-09-21T03:15:33;1.35;;;0.70;;
70725;SDS011;58304;53.104;6.022;2022-09-21T03:18:03;1.15;;;0.70;;
70725;SDS011;58304;53.104;6.022;2022-09-21T03:20:33;0.80;;;0.60;;
70725;SDS011;58304;53.104;6.022;2022-09-21T03:22:59;2.60;;;0.77;;
70725;SDS011;58304;53.104;6.022;2022-09-21T03:27:51;0.80;;;0.60;;
70725;SDS011;58304;53.104;6.022;2022-09-21T03:32:47;0.93;;;0.70;;
70725;SDS011;58304;53.104;6.022;2022-09-21T03:35:15;1.48;;;0.70;;
70725;SDS011;58304;53.104;6.022;2022-09-21T03:37:41;12.75;;;0.95;;
70725;SDS011;58304;53.104;6.022;2022-09-21T03:44:58;2.53;;;0.70;;
70725;SDS011;58304;53.104;6.022;2022-09-21T03:52:15;1.20;;;0.80;;
70725;SDS011;58304;53.104;6.022;2022-09-21T03:57:06;9.35;;;1.13;;
70725;SDS011;58304;53.104;6.022;2022-09-21T03:59:32;14.38;;;1.40;;
70725;SDS011;58304;53.104;6.022;2022-09-21T04:01:59;3.58;;;1.13;;
70725;SDS011;58304;53.104;6.022;2022-09-21T04:04:25;4.25;;;1.35;;
70725;SDS011;58304;53.104;6.022;2022-09-21T04:11:43;3.33;;;1.20;;
70725;SDS011;58304;53.104;6.022;2022-09-21T04:14:13;3.20;;;1.10;;
70725;SDS011;58304;53.104;6.022;2022-09-21T04:16:38;3.83;;;1.15;;
70725;SDS011;58304;53.104;6.022;2022-09-21T04:19:04;4.22;;;1.30;;
70725;SDS011;58304;53.104;6.022;2022-09-21T04:21:30;5.70;;;1.10;;
70725;SDS011;58304;53.104;6.022;2022-09-21T04:23:56;1.40;;;0.90;;
70725;SDS011;58304;53.104;6.022;2022-09-21T04:28:48;3.50;;;0.93;;
70725;SDS011;58304;53.104;6.022;2022-09-21T04:31:14;2.38;;;1.27;;
70725;SDS011;58304;53.104;6.022;2022-09-21T04:33:39;2.88;;;1.40;;
70725;SDS011;58304;53.104;6.022;2022-09-21T04:36:05;2.55;;;1.25;;
70725;SDS011;58304;53.104;6.022;2022-09-21T04:45:48;10.35;;;1.23;;
70725;SDS011;58304;53.104;6.022;2022-09-21T04:48:13;4.80;;;1.40;;
70725;SDS011;58304;53.104;6.022;2022-09-21T04:50:39;5.32;;;1.38;;
70725;SDS011;58304;53.104;6.022;2022-09-21T04:55:30;3.05;;;1.00;;
70725;SDS011;58304;53.104;6.022;2022-09-21T04:57:56;1.67;;;0.90;;
70725;SDS011;58304;53.104;6.022;2022-09-21T05:02:47;1.30;;;0.80;;
70725;SDS011;58304;53.104;6.022;2022-09-21T05:05:13;1.75;;;0.82;;
70725;SDS011;58304;53.104;6.022;2022-09-21T05:07:38;6.38;;;1.38;;
70725;SDS011;58304;53.104;6.022;2022-09-21T05:12:30;1.75;;;0.95;;
70725;SDS011;58304;53.104;6.022;2022-09-21T05:14:57;2.53;;;0.90;;
70725;SDS011;58304;53.104;6.022;2022-09-21T05:17:23;1.30;;;0.80;;
70725;SDS011;58304;53.104;6.022;2022-09-21T05:19:49;1.50;;;0.80;;
70725;SDS011;58304;53.104;6.022;2022-09-21T05:22:15;1.67;;;0.80;;
70725;SDS011;58304;53.104;6.022;2022-09-21T05:24:41;1.10;;;0.70;;
70725;SDS011;58304;53.104;6.022;2022-09-21T05:29:32;0.93;;;0.60;;
70725;SDS011;58304;53.104;6.022;2022-09-21T05:32:02;1.52;;;0.77;;
70725;SDS011;58304;53.104;6.022;2022-09-21T05:40:02;1.73;;;0.95;;
70725;SDS011;58304;53.104;6.022;2022-09-21T05:42:28;1.77;;;0.85;;
70725;SDS011;58304;53.104;6.022;2022-09-21T05:44:54;2.13;;;0.98;;
70725;SDS011;58304;53.104;6.022;2022-09-21T05:47:23;1.75;;;0.80;;
70725;SDS011;58304;53.104;6.022;2022-09-21T05:58:35;2.08;;;0.90;;
70725;SDS011;58304;53.104;6.022;2022-09-21T06:01:18;1.98;;;0.88;;
70725;SDS011;58304;53.104;6.022;2022-09-21T06:03:53;4.78;;;1.00;;
70725;SDS011;58304;53.104;6.022;2022-09-21T06:06:20;3.83;;;0.98;;
70725;SDS011;58304;53.104;6.022;2022-09-21T06:11:12;1.98;;;1.02;;
70725;SDS011;58304;53.104;6.022;2022-09-21T06:13:39;2.60;;;0.90;;
70725;SDS011;58304;53.104;6.022;2022-09-21T06:16:05;1.83;;;1.02;;
70725;SDS011;58304;53.104;6.022;2022-09-21T06:18:35;4.07;;;0.95;;
70725;SDS011;58304;53.104;6.022;2022-09-21T06:21:02;2.35;;;0.90;;
70725;SDS011;58304;53.104;6.022;2022-09-21T06:25:53;1.60;;;0.93;;
70725;SDS011;58304;53.104;6.022;2022-09-21T06:30:49;2.42;;;1.10;;
70725;SDS011;58304;53.104;6.022;2022-09-21T06:33:16;6.70;;;1.27;;
70725;SDS011;58304;53.104;6.022;2022-09-21T06:35:50;3.45;;;1.40;;
70725;SDS011;58304;53.104;6.022;2022-09-21T06:38:23;2.13;;;1.20;;
70725;SDS011;58304;53.104;6.022;2022-09-21T06:40:49;2.95;;;1.50;;
70725;SDS011;58304;53.104;6.022;2022-09-21T06:43:16;7.20;;;1.65;;
70725;SDS011;58304;53.104;6.022;2022-09-21T06:45:42;3.97;;;1.73;;
70725;SDS011;58304;53.104;6.022;2022-09-21T06:48:07;2.78;;;1.30;;
70725;SDS011;58304;53.104;6.022;2022-09-21T06:50:33;4.45;;;1.48;;
70725;SDS011;58304;53.104;6.022;2022-09-21T06:52:59;3.22;;;1.35;;
70725;SDS011;58304;53.104;6.022;2022-09-21T06:55:26;3.75;;;1.40;;
70725;SDS011;58304;53.104;6.022;2022-09-21T06:57:52;5.72;;;1.48;;
70725;SDS011;58304;53.104;6.022;2022-09-21T07:00:20;2.85;;;1.40;;
70725;SDS011;58304;53.104;6.022;2022-09-21T07:02:46;3.97;;;1.30;;
70725;SDS011;58304;53.104;6.022;2022-09-21T07:05:11;2.92;;;1.30;;
70725;SDS011;58304;53.104;6.022;2022-09-21T07:07:37;5.38;;;1.50;;
70725;SDS011;58304;53.104;6.022;2022-09-21T07:10:04;3.88;;;1.25;;
70725;SDS011;58304;53.104;6.022;2022-09-21T07:12:32;2.08;;;1.10;;
70725;SDS011;58304;53.104;6.022;2022-09-21T07:14:58;2.40;;;1.13;;
70725;SDS011;58304;53.104;6.022;2022-09-21T07:17:29;3.95;;;1.10;;
70725;SDS011;58304;53.104;6.022;2022-09-21T07:19:56;4.60;;;1.48;;
70725;SDS011;58304;53.104;6.022;2022-09-21T07:22:21;3.50;;;1.45;;
70725;SDS011;58304;53.104;6.022;2022-09-21T07:24:47;3.92;;;1.20;;
70725;SDS011;58304;53.104;6.022;2022-09-21T07:27:12;2.28;;;1.10;;
70725;SDS011;58304;53.104;6.022;2022-09-21T07:29:38;4.28;;;1.30;;
70725;SDS011;58304;53.104;6.022;2022-09-21T07:32:03;3.65;;;1.20;;
70725;SDS011;58304;53.104;6.022;2022-09-21T07:34:33;3.55;;;1.20;;
70725;SDS011;58304;53.104;6.022;2022-09-21T07:36:59;3.88;;;1.33;;
70725;SDS011;58304;53.104;6.022;2022-09-21T07:39:25;3.58;;;1.10;;
70725;SDS011;58304;53.104;6.022;2022-09-21T07:41:51;3.28;;;1.10;;
70725;SDS011;58304;53.104;6.022;2022-09-21T07:44:17;5.00;;;1.02;;
70725;SDS011;58304;53.104;6.022;2022-09-21T07:46:44;3.30;;;1.10;;
70725;SDS011;58304;53.104;6.022;2022-09-21T07:49:12;5.32;;;1.20;;
70725;SDS011;58304;53.104;6.022;2022-09-21T07:51:38;4.70;;;1.30;;
70725;SDS011;58304;53.104;6.022;2022-09-21T07:54:04;1.98;;;0.90;;
70725;SDS011;58304;53.104;6.022;2022-09-21T07:56:29;3.30;;;0.95;;
70725;SDS011;58304;53.104;6.022;2022-09-21T07:58:55;3.35;;;0.90;;
70725;SDS011;58304;53.104;6.022;2022-09-21T08:01:30;2.55;;;0.93;;
70725;SDS011;58304;53.104;6.022;2022-09-21T08:03:56;2.50;;;0.98;;
70725;SDS011;58304;53.104;6.022;2022-09-21T08:06:23;5.65;;;0.93;;
70725;SDS011;58304;53.104;6.022;2022-09-21T08:08:50;4.70;;;1.10;;
70725;SDS011;58304;53.104;6.022;2022-09-21T08:11:17;4.60;;;1.30;;
70725;SDS011;58304;53.104;6.022;2022-09-21T08:13:46;3.70;;;1.23;;
70725;SDS011;58304;53.104;6.022;2022-09-21T08:16:18;5.10;;;1.00;;
70725;SDS011;58304;53.104;6.022;2022-09-21T08:18:43;4.38;;;1.10;;
70725;SDS011;58304;53.104;6.022;2022-09-21T08:21:09;6.53;;;1.00;;
70725;SDS011;58304;53.104;6.022;2022-09-21T08:23:39;5.57;;;1.15;;
70725;SDS011;58304;53.104;6.022;2022-09-21T08:26:10;4.10;;;1.17;;
70725;SDS011;58304;53.104;6.022;2022-09-21T08:28:40;3.63;;;1.00;;
70725;SDS011;58304;53.104;6.022;2022-09-21T08:31:06;5.53;;;1.20;;
70725;SDS011;58304;53.104;6.022;2022-09-21T08:33:33;4.47;;;1.10;;
70725;SDS011;58304;53.104;6.022;2022-09-21T08:35:59;5.70;;;1.10;;
70725;SDS011;58304;53.104;6.022;2022-09-21T08:38:26;4.50;;;1.10;;
70725;SDS011;58304;53.104;6.022;2022-09-21T08:40:56;3.15;;;0.93;;
70725;SDS011;58304;53.104;6.022;2022-09-21T08:46:04;3.30;;;1.00;;
70725;SDS011;58304;53.104;6.022;2022-09-21T08:48:52;4.28;;;1.00;;
70725;SDS011;58304;53.104;6.022;2022-09-21T08:51:23;5.35;;;0.90;;
70725;SDS011;58304;53.104;6.022;2022-09-21T08:53:52;3.88;;;1.00;;
70725;SDS011;58304;53.104;6.022;2022-09-21T08:56:24;4.25;;;1.00;;
70725;SDS011;58304;53.104;6.022;2022-09-21T08:58:51;4.10;;;0.88;;
70725;SDS011;58304;53.104;6.022;2022-09-21T09:04:25;3.65;;;0.80;;
70725;SDS011;58304;53.104;6.022;2022-09-21T09:07:02;7.55;;;0.98;;
70725;SDS011;58304;53.104;6.022;2022-09-21T09:12:37;4.38;;;1.00;;
70725;SDS011;58304;53.104;6.022;2022-09-21T09:18:08;5.38;;;0.90;;
70725;SDS011;58304;53.104;6.022;2022-09-21T09:20:52;3.10;;;0.80;;
70725;SDS011;58304;53.104;6.022;2022-09-21T09:23:35;3.78;;;0.80;;
70725;SDS011;58304;53.104;6.022;2022-09-21T09:28:59;5.95;;;0.95;;
70725;SDS011;58304;53.104;6.022;2022-09-21T09:31:33;3.28;;;0.70;;
70725;SDS011;58304;53.104;6.022;2022-09-21T09:34:17;5.00;;;1.00;;
70725;SDS011;58304;53.104;6.022;2022-09-21T09:37:13;4.50;;;1.00;;
70725;SDS011;58304;53.104;6.022;2022-09-21T09:39:42;3.13;;;0.70;;
70725;SDS011;58304;53.104;6.022;2022-09-21T09:50:20;3.28;;;0.65;;
70725;SDS011;58304;53.104;6.022;2022-09-21T09:52:48;3.05;;;0.68;;
70725;SDS011;58304;53.104;6.022;2022-09-21T09:55:25;4.80;;;0.77;;
70725;SDS011;58304;53.104;6.022;2022-09-21T09:58:01;3.08;;;0.75;;
70725;SDS011;58304;53.104;6.022;2022-09-21T10:00:27;3.22;;;0.93;;
70725;SDS011;58304;53.104;6.022;2022-09-21T10:02:53;3.83;;;0.73;;
70725;SDS011;58304;53.104;6.022;2022-09-21T10:05:35;4.97;;;0.73;;
70725;SDS011;58304;53.104;6.022;2022-09-21T10:08:07;3.58;;;0.80;;
70725;SDS011;58304;53.104;6.022;2022-09-21T10:10:56;4.35;;;0.70;;
70725;SDS011;58304;53.104;6.022;2022-09-21T10:13:32;4.85;;;0.80;;
70725;SDS011;58304;53.104;6.022;2022-09-21T10:18:50;4.90;;;0.80;;
70725;SDS011;58304;53.104;6.022;2022-09-21T10:21:23;3.42;;;0.70;;
70725;SDS011;58304;53.104;6.022;2022-09-21T10:23:53;5.60;;;0.80;;
70725;SDS011;58304;53.104;6.022;2022-09-21T10:26:23;3.28;;;0.80;;
70725;SDS011;58304;53.104;6.022;2022-09-21T10:34:28;7.00;;;0.70;;
70725;SDS011;58304;53.104;6.022;2022-09-21T10:36:56;5.38;;;0.88;;
70725;SDS011;58304;53.104;6.022;2022-09-21T10:39:30;2.90;;;0.50;;
70725;SDS011;58304;53.104;6.022;2022-09-21T10:41:58;3.30;;;0.68;;
70725;SDS011;58304;53.104;6.022;2022-09-21T10:49:57;3.47;;;0.52;;
70725;SDS011;58304;53.104;6.022;2022-09-21T10:52:37;8.48;;;0.82;;
70725;SDS011;58304;53.104;6.022;2022-09-21T10:55:06;2.63;;;0.68;;
70725;SDS011;58304;53.104;6.022;2022-09-21T10:57:43;4.65;;;0.60;;
70725;SDS011;58304;53.104;6.022;2022-09-21T11:00:29;2.28;;;0.52;;
70725;SDS011;58304;53.104;6.022;2022-09-21T11:03:05;3.42;;;0.70;;
70725;SDS011;58304;53.104;6.022;2022-09-21T11:06:03;3.65;;;0.57;;
70725;SDS011;58304;53.104;6.022;2022-09-21T11:08:35;2.00;;;0.60;;
70725;SDS011;58304;53.104;6.022;2022-09-21T11:11:16;2.13;;;0.50;;
70725;SDS011;58304;53.104;6.022;2022-09-21T11:17:48;2.75;;;0.70;;
70725;SDS011;58304;53.104;6.022;2022-09-21T11:20:02;4.07;;;0.70;;
70725;SDS011;58304;53.104;6.022;2022-09-21T11:26:00;3.42;;;0.60;;
70725;SDS011;58304;53.104;6.022;2022-09-21T11:31:40;2.10;;;0.50;;
70725;SDS011;58304;53.104;6.022;2022-09-21T11:42:53;3.85;;;0.80;;
70725;SDS011;58304;53.104;6.022;2022-09-21T11:48:34;2.63;;;0.63;;
70725;SDS011;58304;53.104;6.022;2022-09-21T12:00:15;3.25;;;0.70;;
70725;SDS011;58304;53.104;6.022;2022-09-21T12:05:34;2.97;;;0.57;;
70725;SDS011;58304;53.104;6.022;2022-09-21T12:13:35;4.68;;;0.88;;
70725;SDS011;58304;53.104;6.022;2022-09-21T12:16:12;2.80;;;0.60;;
70725;SDS011;58304;53.104;6.022;2022-09-21T12:21:49;3.08;;;0.70;;
70725;SDS011;58304;53.104;6.022;2022-09-21T12:24:26;3.25;;;0.70;;
70725;SDS011;58304;53.104;6.022;2022-09-21T12:26:57;2.05;;;0.63;;
70725;SDS011;58304;53.104;6.022;2022-09-21T12:34:56;3.10;;;0.65;;
70725;SDS011;58304;53.104;6.022;2022-09-21T12:37:29;3.50;;;0.60;;
70725;SDS011;58304;53.104;6.022;2022-09-21T12:40:16;7.03;;;0.90;;
70725;SDS011;58304;53.104;6.022;2022-09-21T12:42:47;3.90;;;0.60;;
70725;SDS011;58304;53.104;6.022;2022-09-21T12:45:25;2.92;;;0.93;;
70725;SDS011;58304;53.104;6.022;2022-09-21T12:50:43;3.78;;;1.10;;
70725;SDS011;58304;53.104;6.022;2022-09-21T12:53:29;2.10;;;0.40;;
70725;SDS011;58304;53.104;6.022;2022-09-21T13:09:41;3.65;;;0.68;;
70725;SDS011;58304;53.104;6.022;2022-09-21T13:12:17;2.50;;;0.50;;
70725;SDS011;58304;53.104;6.022;2022-09-21T13:14:50;2.97;;;0.75;;
70725;SDS011;58304;53.104;6.022;2022-09-21T13:17:22;1.38;;;0.50;;
70725;SDS011;58304;53.104;6.022;2022-09-21T13:19:58;3.85;;;0.50;;
70725;SDS011;58304;53.104;6.022;2022-09-21T13:22:31;2.83;;;0.70;;
70725;SDS011;58304;53.104;6.022;2022-09-21T13:25:05;2.83;;;0.60;;
70725;SDS011;58304;53.104;6.022;2022-09-21T13:27:54;3.65;;;0.57;;
70725;SDS011;58304;53.104;6.022;2022-09-21T13:43:45;3.63;;;0.70;;
70725;SDS011;58304;53.104;6.022;2022-09-21T13:54:33;3.03;;;0.65;;
70725;SDS011;58304;53.104;6.022;2022-09-21T14:08:01;3.08;;;0.68;;
70725;SDS011;58304;53.104;6.022;2022-09-21T14:10:58;4.05;;;0.70;;
70725;SDS011;58304;53.104;6.022;2022-09-21T14:13:38;2.72;;;0.40;;
70725;SDS011;58304;53.104;6.022;2022-09-21T14:32:19;2.03;;;0.65;;
70725;SDS011;58304;53.104;6.022;2022-09-21T14:34:59;3.28;;;0.63;;
70725;SDS011;58304;53.104;6.022;2022-09-21T14:37:43;2.97;;;0.60;;
70725;SDS011;58304;53.104;6.022;2022-09-21T14:40:20;2.65;;;0.50;;
70725;SDS011;58304;53.104;6.022;2022-09-21T14:42:59;3.13;;;0.60;;
70725;SDS011;58304;53.104;6.022;2022-09-21T14:51:29;2.50;;;0.65;;
70725;SDS011;58304;53.104;6.022;2022-09-21T15:10:23;2.28;;;0.60;;
70725;SDS011;58304;53.104;6.022;2022-09-21T15:16:10;3.78;;;1.05;;
70725;SDS011;58304;53.104;6.022;2022-09-21T15:18:47;2.30;;;0.50;;
70725;SDS011;58304;53.104;6.022;2022-09-21T15:23:52;2.67;;;0.50;;
70725;SDS011;58304;53.104;6.022;2022-09-21T15:26:36;3.53;;;0.60;;
70725;SDS011;58304;53.104;6.022;2022-09-21T15:29:07;2.35;;;0.55;;
70725;SDS011;58304;53.104;6.022;2022-09-21T15:31:45;2.13;;;0.50;;
70725;SDS011;58304;53.104;6.022;2022-09-21T15:34:11;3.47;;;0.60;;
70725;SDS011;58304;53.104;6.022;2022-09-21T15:36:39;3.13;;;0.70;;
70725;SDS011;58304;53.104;6.022;2022-09-21T15:39:18;3.50;;;0.70;;
70725;SDS011;58304;53.104;6.022;2022-09-21T15:44:33;3.65;;;0.60;;
70725;SDS011;58304;53.104;6.022;2022-09-21T15:47:01;2.25;;;0.50;;
70725;SDS011;58304;53.104;6.022;2022-09-21T15:49:30;3.00;;;0.70;;
70725;SDS011;58304;53.104;6.022;2022-09-21T15:52:08;2.40;;;0.50;;
70725;SDS011;58304;53.104;6.022;2022-09-21T15:54:53;2.28;;;0.50;;
70725;SDS011;58304;53.104;6.022;2022-09-21T15:57:23;2.85;;;0.60;;
70725;SDS011;58304;53.104;6.022;2022-09-21T15:59:54;3.95;;;0.80;;
70725;SDS011;58304;53.104;6.022;2022-09-21T16:02:21;3.10;;;0.50;;
70725;SDS011;58304;53.104;6.022;2022-09-21T16:04:49;2.30;;;0.60;;
70725;SDS011;58304;53.104;6.022;2022-09-21T16:07:23;4.45;;;0.63;;
70725;SDS011;58304;53.104;6.022;2022-09-21T16:09:49;3.10;;;0.60;;
70725;SDS011;58304;53.104;6.022;2022-09-21T16:17:26;4.90;;;0.70;;
70725;SDS011;58304;53.104;6.022;2022-09-21T16:22:23;7.35;;;0.88;;
70725;SDS011;58304;53.104;6.022;2022-09-21T16:27:22;3.47;;;0.70;;
70725;SDS011;58304;53.104;6.022;2022-09-21T16:29:49;7.72;;;1.02;;
70725;SDS011;58304;53.104;6.022;2022-09-21T16:34:42;7.40;;;0.93;;
70725;SDS011;58304;53.104;6.022;2022-09-21T16:39:50;2.75;;;0.70;;
70725;SDS011;58304;53.104;6.022;2022-09-21T16:42:16;6.05;;;0.80;;
70725;SDS011;58304;53.104;6.022;2022-09-21T16:44:43;2.72;;;0.65;;
70725;SDS011;58304;53.104;6.022;2022-09-21T16:47:20;2.67;;;0.63;;
70725;SDS011;58304;53.104;6.022;2022-09-21T16:49:49;2.25;;;0.75;;
70725;SDS011;58304;53.104;6.022;2022-09-21T16:52:17;3.00;;;0.70;;
70725;SDS011;58304;53.104;6.022;2022-09-21T16:54:43;2.92;;;0.65;;
70725;SDS011;58304;53.104;6.022;2022-09-21T16:57:09;2.67;;;0.70;;
70725;SDS011;58304;53.104;6.022;2022-09-21T16:59:37;3.22;;;0.73;;
70725;SDS011;58304;53.104;6.022;2022-09-21T17:02:02;2.97;;;0.77;;
70725;SDS011;58304;53.104;6.022;2022-09-21T17:04:31;3.70;;;0.90;;
70725;SDS011;58304;53.104;6.022;2022-09-21T17:06:58;7.22;;;0.70;;
70725;SDS011;58304;53.104;6.022;2022-09-21T17:12:01;2.00;;;0.80;;
70725;SDS011;58304;53.104;6.022;2022-09-21T17:14:28;3.17;;;0.80;;
70725;SDS011;58304;53.104;6.022;2022-09-21T17:17:00;7.90;;;1.27;;
70725;SDS011;58304;53.104;6.022;2022-09-21T17:19:32;5.53;;;0.85;;
70725;SDS011;58304;53.104;6.022;2022-09-21T17:21:59;4.53;;;0.73;;
70725;SDS011;58304;53.104;6.022;2022-09-21T17:24:30;2.60;;;0.70;;
70725;SDS011;58304;53.104;6.022;2022-09-21T17:26:56;3.17;;;1.02;;
70725;SDS011;58304;53.104;6.022;2022-09-21T17:29:25;4.72;;;0.90;;
70725;SDS011;58304;53.104;6.022;2022-09-21T17:31:52;6.03;;;0.80;;
70725;SDS011;58304;53.104;6.022;2022-09-21T17:34:24;3.42;;;0.80;;
70725;SDS011;58304;53.104;6.022;2022-09-21T17:36:51;6.65;;;0.90;;
70725;SDS011;58304;53.104;6.022;2022-09-21T17:39:19;3.58;;;0.80;;
70725;SDS011;58304;53.104;6.022;2022-09-21T17:44:29;3.33;;;0.82;;
70725;SDS011;58304;53.104;6.022;2022-09-21T17:49:42;4.82;;;0.90;;
70725;SDS011;58304;53.104;6.022;2022-09-21T17:52:13;3.83;;;0.85;;
70725;SDS011;58304;53.104;6.022;2022-09-21T17:55:05;4.60;;;0.95;;
70725;SDS011;58304;53.104;6.022;2022-09-21T18:00:17;5.53;;;1.10;;
70725;SDS011;58304;53.104;6.022;2022-09-21T18:02:45;4.15;;;1.23;;
70725;SDS011;58304;53.104;6.022;2022-09-21T18:05:25;5.38;;;1.10;;
70725;SDS011;58304;53.104;6.022;2022-09-21T18:07:53;5.45;;;1.20;;
70725;SDS011;58304;53.104;6.022;2022-09-21T18:10:20;5.22;;;1.05;;
70725;SDS011;58304;53.104;6.022;2022-09-21T18:15:26;6.10;;;1.30;;
70725;SDS011;58304;53.104;6.022;2022-09-21T18:18:29;3.95;;;1.00;;
70725;SDS011;58304;53.104;6.022;2022-09-21T18:21:12;4.80;;;1.20;;
70725;SDS011;58304;53.104;6.022;2022-09-21T18:26:15;5.88;;;1.38;;
70725;SDS011;58304;53.104;6.022;2022-09-21T18:28:45;5.57;;;1.50;;
70725;SDS011;58304;53.104;6.022;2022-09-21T18:42:20;5.50;;;1.35;;
70725;SDS011;58304;53.104;6.022;2022-09-21T18:45:11;3.70;;;1.27;;
70725;SDS011;58304;53.104;6.022;2022-09-21T18:47:58;6.18;;;1.02;;
70725;SDS011;58304;53.104;6.022;2022-09-21T18:53:31;3.35;;;1.08;;
70725;SDS011;58304;53.104;6.022;2022-09-21T18:56:10;4.68;;;1.40;;
70725;SDS011;58304;53.104;6.022;2022-09-21T18:58:36;3.28;;;1.20;;
70725;SDS011;58304;53.104;6.022;2022-09-21T19:01:03;2.72;;;1.20;;
70725;SDS011;58304;53.104;6.022;2022-09-21T19:03:29;5.15;;;1.30;;
70725;SDS011;58304;53.104;6.022;2022-09-21T19:09:05;4.05;;;1.15;;
70725;SDS011;58304;53.104;6.022;2022-09-21T19:11:42;2.72;;;1.00;;
70725;SDS011;58304;53.104;6.022;2022-09-21T19:19:52;3.78;;;1.58;;
70725;SDS011;58304;53.104;6.022;2022-09-21T19:22:46;5.22;;;1.20;;
70725;SDS011;58304;53.104;6.022;2022-09-21T19:25:49;3.70;;;1.13;;
70725;SDS011;58304;53.104;6.022;2022-09-21T19:31:20;4.93;;;1.17;;
70725;SDS011;58304;53.104;6.022;2022-09-21T19:33:46;6.68;;;1.38;;
70725;SDS011;58304;53.104;6.022;2022-09-21T19:36:12;7.85;;;1.73;;
70725;SDS011;58304;53.104;6.022;2022-09-21T19:38:38;6.45;;;1.58;;
70725;SDS011;58304;53.104;6.022;2022-09-21T19:41:11;8.60;;;1.80;;
70725;SDS011;58304;53.104;6.022;2022-09-21T19:44:01;5.20;;;1.55;;
70725;SDS011;58304;53.104;6.022;2022-09-21T19:49:34;4.03;;;1.23;;
70725;SDS011;58304;53.104;6.022;2022-09-21T19:52:07;3.42;;;1.10;;
70725;SDS011;58304;53.104;6.022;2022-09-21T19:54:38;4.68;;;1.17;;
70725;SDS011;58304;53.104;6.022;2022-09-21T19:57:23;2.80;;;1.10;;
70725;SDS011;58304;53.104;6.022;2022-09-21T20:00:09;3.00;;;1.00;;
70725;SDS011;58304;53.104;6.022;2022-09-21T20:11:43;2.75;;;0.70;;
70725;SDS011;58304;53.104;6.022;2022-09-21T20:14:35;1.35;;;0.80;;
70725;SDS011;58304;53.104;6.022;2022-09-21T20:17:38;2.45;;;0.95;;
70725;SDS011;58304;53.104;6.022;2022-09-21T20:22:45;1.45;;;0.80;;
70725;SDS011;58304;53.104;6.022;2022-09-21T20:25:15;3.08;;;1.05;;
70725;SDS011;58304;53.104;6.022;2022-09-21T20:28:00;4.65;;;1.30;;
70725;SDS011;58304;53.104;6.022;2022-09-21T20:30:28;1.73;;;1.08;;
70725;SDS011;58304;53.104;6.022;2022-09-21T20:32:58;4.00;;;1.60;;
70725;SDS011;58304;53.104;6.022;2022-09-21T20:35:28;5.03;;;1.83;;
70725;SDS011;58304;53.104;6.022;2022-09-21T20:37:54;4.00;;;1.98;;
70725;SDS011;58304;53.104;6.022;2022-09-21T20:40:21;6.00;;;2.10;;
70725;SDS011;58304;53.104;6.022;2022-09-21T20:42:51;3.83;;;1.95;;
70725;SDS011;58304;53.104;6.022;2022-09-21T20:45:17;7.30;;;2.10;;
70725;SDS011;58304;53.104;6.022;2022-09-21T20:47:43;7.95;;;2.15;;
70725;SDS011;58304;53.104;6.022;2022-09-21T20:50:12;6.65;;;2.25;;
70725;SDS011;58304;53.104;6.022;2022-09-21T20:52:38;3.95;;;2.10;;
70725;SDS011;58304;53.104;6.022;2022-09-21T20:55:06;5.13;;;2.20;;
70725;SDS011;58304;53.104;6.022;2022-09-21T20:57:37;6.82;;;2.30;;
70725;SDS011;58304;53.104;6.022;2022-09-21T21:00:04;5.90;;;2.50;;
70725;SDS011;58304;53.104;6.022;2022-09-21T21:02:31;7.97;;;2.42;;
70725;SDS011;58304;53.104;6.022;2022-09-21T21:04:57;7.43;;;2.83;;
70725;SDS011;58304;53.104;6.022;2022-09-21T21:07:23;7.15;;;3.17;;
70725;SDS011;58304;53.104;6.022;2022-09-21T21:09:49;7.35;;;3.50;;
70725;SDS011;58304;53.104;6.022;2022-09-21T21:12:15;7.35;;;3.70;;
70725;SDS011;58304;53.104;6.022;2022-09-21T21:14:40;7.90;;;3.78;;
70725;SDS011;58304;53.104;6.022;2022-09-21T21:17:06;6.15;;;3.75;;
70725;SDS011;58304;53.104;6.022;2022-09-21T21:19:32;8.77;;;3.40;;
70725;SDS011;58304;53.104;6.022;2022-09-21T21:21:58;8.90;;;4.00;;